Aviation Digital Data Service (ADDS)

Output produced by TAFs form (0141 UTC 22 November 2017)
found at http://www.aviationweather.gov/adds/tafs/
 
METAR text: RJFG 220100Z 11011KT 8000 -SHRA FEW018 SCT025 BKN035 17/15 Q1017
Conditions at: RJFG (TANEGASHIMA AIRP, JP) observed 0100 UTC 22 November 2017
Temperature: 17.0°C (63°F)
Dewpoint: 15.0°C (59°F) [RH = 88%]
Pressure (altimeter): 30.03 inches Hg (1017.0 mb)
Winds: from the ESE (110 degrees) at 13 MPH (11 knots; 5.7 m/s)
Visibility: 5 miles (8 km)
Ceiling: 3500 feet AGL
Clouds: few clouds at 1800 feet AGL
scattered clouds at 2500 feet AGL
broken clouds at 3500 feet AGL
Weather: -SHRA  (light rain showers)